Etusivu
METAR-TAF:

METAR-TAF

Lentoasemat :

Havanna, Kuuba

Leveyspiiri: 22-59N, Pituuspiiri: 082-24W, korkeus merenpinnasta: 59 m

Tämänhetkinen sää

Tämä raportti tehtiin 44 minuuttia sitten, kello 13.55 UTC
Tuuli 8 kn idästä
Lämpötila 23°C
Kosteus 78%
Ilmanpaine 1019 hPa
Näkyvyys: 9000 m
Muutamia pilviä 3000 ft:n korkeudessa

METAR: MUHA 041355Z 09008KT 9000 FEW030 23/19 Q1019

Aika: 09:39 (14:39 UTC)

Sääennuste

Tämä raportti tehtiin 3 tuntia ja 39 minuuttia sitten, kello 11.00 UTC
Ennuste voimassa 04. päivästä klo 12 UTC - 05. päivään klo 12 UTC
Tuuli 5 kn idästä
Näkyvyys: 9000 m
Muutamia pilviä 4000 ft:n korkeudessa
Tulossa
04. päivästä klo 14 UTC - 04. päivään klo 16 UTC
Tuuli 10 kn idästä
Hajanaisia pilviä 3000 ft:n korkeudessa
Tulossa
05. päivästä klo 03 UTC - 05. päivään klo 05 UTC
Tuuli 6 kn idästä/kaakosta

TAF: MUHA 041100Z 0412/0512 09005KT 9000 FEW040 BECMG 0414/0416 10010KT SCT030 BECMG 0503/0505 12006KT

Säähavainnot ja -ennusteet yli 4000 lentoasemalta (METAR- ja TAF-raportit).

Käytössä olevat sääasemat on merkitty karttaan keltaisilla ja punaisilla pisteillä.

Aseta hiiri pisteen päälle nähdäksesi sääaseman nimen.

Klikkaa sitten nähdäksesi säähavainnot ja -ennusteet.

Kartan vaihtaminen: klikkaa mustalla rastilla varustettuja vihreitä pisteitä, niin voit zoomata sisään; viivalla varustettua vihreää pistettä, niin voit zoomata ulos tai vihreitä nuolia, niin pääset viereisille kartoille.


METAR-TAF: